FIN152 VTSP-EFHK
Flight info
| Callsign | FIN152 |
|---|---|
| Flight time | N/A |
| Altitude | 34000 |
| Route | UBNEN1A UBNEN L645 MAPSO P628 OPASA/N0498F360 P628 RK G202 ZB L750 KADVI/N0483F380 L750 RANAH A846 RUBAD B475 DOLOS B449 DUKAN N449 SULEL M747 LUSAL M11 REBLO UM11 CRM/N0481F400 UL746 ODERO DCT DINRO DCT ETEPA DCT SAT DCT KENIN DCT TOXAR/N0496F410 DCT BOKSU DCT INBOV DCT GUNTA M857 SOKVA DCT ANAMA DCT KEMET Q11 INTOR |
| Aircraft | A359/H-SDE2E3GHIJ3J4J5LM1ORWXY/LB1D1 |
Departure
| Time | N/A |
|---|---|
| Airport | Phuket International Airport (VTSP) |
Arrival
| Time | 2026-04-26 08:29 |
|---|---|
| Airport | Helsinki Vantaa Airport (EFHK) |
| Time | Latitude | Longitude | Altitude | Speed | Heading |
|---|---|---|---|---|---|
| 2026-04-26 04:48 | 41.10197 | 38.64511 | 34017 ft | 444 kts | 276° |
| 2026-04-26 04:48 | 41.10544 | 38.60496 | 34016 ft | 444 kts | 276° |
| 2026-04-26 04:49 | 41.11236 | 38.52345 | 34018 ft | 445 kts | 276° |
| 2026-04-26 04:49 | 41.11576 | 38.48259 | 34253 ft | 445 kts | 276° |
| 2026-04-26 04:49 | 41.11914 | 38.44180 | 34632 ft | 443 kts | 276° |
| 2026-04-26 04:50 | 41.12246 | 38.40164 | 34954 ft | 442 kts | 276° |
| 2026-04-26 04:50 | 41.12581 | 38.36107 | 35250 ft | 442 kts | 276° |
| 2026-04-26 04:50 | 41.12915 | 38.32049 | 35523 ft | 442 kts | 276° |
| 2026-04-26 04:50 | 41.13248 | 38.27988 | 35810 ft | 442 kts | 276° |
| 2026-04-26 04:51 | 41.13583 | 38.23928 | 36077 ft | 442 kts | 276° |
| 2026-04-26 04:51 | 41.13918 | 38.19861 | 36329 ft | 442 kts | 276° |
| 2026-04-26 04:51 | 41.14246 | 38.15846 | 36582 ft | 443 kts | 275° |
| 2026-04-26 04:51 | 41.14578 | 38.11758 | 36827 ft | 443 kts | 275° |
| 2026-04-26 04:52 | 41.14906 | 38.07699 | 37070 ft | 443 kts | 275° |
| 2026-04-26 04:52 | 41.15095 | 38.05357 | 37203 ft | 443 kts | 275° |
| 2026-04-26 04:52 | 41.15326 | 38.02475 | 37369 ft | 443 kts | 275° |
| 2026-04-26 04:52 | 41.15521 | 38.00046 | 37516 ft | 443 kts | 275° |
| 2026-04-26 04:53 | 41.15847 | 37.95970 | 37755 ft | 443 kts | 275° |
| 2026-04-26 04:53 | 41.16170 | 37.91903 | 37973 ft | 443 kts | 275° |
| 2026-04-26 04:53 | 41.16494 | 37.87828 | 38181 ft | 444 kts | 275° |
| 2026-04-26 04:53 | 41.16828 | 37.83754 | 38405 ft | 444 kts | 275° |
| 2026-04-26 04:54 | 41.17176 | 37.79669 | 38613 ft | 444 kts | 275° |
| 2026-04-26 04:54 | 41.17523 | 37.75635 | 38780 ft | 444 kts | 275° |
| 2026-04-26 04:54 | 41.17872 | 37.71566 | 38905 ft | 445 kts | 275° |
| 2026-04-26 04:54 | 41.18220 | 37.67480 | 39041 ft | 445 kts | 275° |
| 2026-04-26 04:55 | 41.18566 | 37.63391 | 39174 ft | 446 kts | 275° |
| 2026-04-26 04:55 | 41.18901 | 37.59274 | 39302 ft | 446 kts | 274° |
| 2026-04-26 04:55 | 41.19144 | 37.55163 | 39430 ft | 447 kts | 273° |
| 2026-04-26 04:55 | 41.19363 | 37.51040 | 39558 ft | 447 kts | 274° |
| 2026-04-26 04:56 | 41.19624 | 37.46977 | 39675 ft | 448 kts | 274° |
| 2026-04-26 04:56 | 41.19919 | 37.42846 | 39801 ft | 449 kts | 275° |
| 2026-04-26 04:56 | 41.20229 | 37.38720 | 39907 ft | 449 kts | 275° |
| 2026-04-26 04:56 | 41.20544 | 37.34583 | 39994 ft | 450 kts | 275° |
| 2026-04-26 04:57 | 41.21166 | 37.26304 | 40001 ft | 450 kts | 275° |
| 2026-04-26 04:57 | 41.21785 | 37.18013 | 40000 ft | 451 kts | 275° |
| 2026-04-26 04:58 | 41.22429 | 37.09769 | 39997 ft | 451 kts | 275° |
| 2026-04-26 04:58 | 41.23077 | 37.01459 | 39992 ft | 452 kts | 275° |
| 2026-04-26 04:59 | 41.23714 | 36.93146 | 39995 ft | 452 kts | 275° |
| 2026-04-26 04:59 | 41.24345 | 36.84809 | 39994 ft | 453 kts | 275° |
| 2026-04-26 05:00 | 41.24965 | 36.76517 | 39994 ft | 454 kts | 275° |
| 2026-04-26 05:00 | 41.25585 | 36.68152 | 39995 ft | 454 kts | 275° |
| 2026-04-26 05:01 | 41.26198 | 36.59788 | 39992 ft | 455 kts | 275° |
| 2026-04-26 05:01 | 41.27443 | 36.51592 | 39996 ft | 456 kts | 286° |
| 2026-04-26 05:02 | 41.29402 | 36.43549 | 39994 ft | 457 kts | 288° |
| 2026-04-26 05:02 | 41.31466 | 36.35534 | 39992 ft | 457 kts | 288° |
| 2026-04-26 05:03 | 41.33512 | 36.27572 | 39990 ft | 457 kts | 288° |
| 2026-04-26 05:03 | 41.35550 | 36.19545 | 39988 ft | 457 kts | 288° |
| 2026-04-26 05:04 | 41.37574 | 36.11513 | 39981 ft | 458 kts | 288° |
| 2026-04-26 05:04 | 41.39596 | 36.03461 | 39985 ft | 458 kts | 288° |
| 2026-04-26 05:05 | 41.41611 | 35.95412 | 39984 ft | 458 kts | 288° |
| 2026-04-26 05:05 | 41.43607 | 35.87410 | 39979 ft | 458 kts | 288° |
| 2026-04-26 05:06 | 41.45616 | 35.79333 | 39985 ft | 458 kts | 288° |
| 2026-04-26 05:06 | 41.47618 | 35.71256 | 39984 ft | 458 kts | 288° |
| 2026-04-26 05:07 | 41.49611 | 35.63187 | 39987 ft | 458 kts | 288° |
| 2026-04-26 05:07 | 41.51593 | 35.55136 | 39991 ft | 459 kts | 288° |
| 2026-04-26 05:08 | 41.53581 | 35.47031 | 39993 ft | 459 kts | 288° |
| 2026-04-26 05:08 | 41.55565 | 35.38914 | 39994 ft | 459 kts | 288° |
| 2026-04-26 05:09 | 41.57546 | 35.30780 | 39999 ft | 460 kts | 288° |
| 2026-04-26 05:09 | 41.59507 | 35.22700 | 39998 ft | 460 kts | 288° |
| 2026-04-26 05:10 | 41.61474 | 35.14565 | 40002 ft | 460 kts | 288° |
| 2026-04-26 05:10 | 41.63441 | 35.06406 | 40005 ft | 461 kts | 288° |
| 2026-04-26 05:11 | 41.65403 | 34.98237 | 40008 ft | 461 kts | 288° |
| 2026-04-26 05:11 | 41.67358 | 34.90071 | 40007 ft | 461 kts | 288° |
| 2026-04-26 05:12 | 41.69300 | 34.81928 | 40004 ft | 461 kts | 288° |
| 2026-04-26 05:12 | 41.71243 | 34.73747 | 40011 ft | 462 kts | 288° |
| 2026-04-26 05:13 | 41.73187 | 34.65540 | 40006 ft | 462 kts | 288° |
| 2026-04-26 05:13 | 41.75124 | 34.57333 | 40002 ft | 462 kts | 287° |
| 2026-04-26 05:14 | 41.77055 | 34.49119 | 40003 ft | 462 kts | 287° |
| 2026-04-26 05:14 | 41.78981 | 34.40892 | 40006 ft | 463 kts | 287° |
| 2026-04-26 05:15 | 41.80891 | 34.32704 | 40009 ft | 463 kts | 287° |
| 2026-04-26 05:15 | 41.82808 | 34.24456 | 40007 ft | 463 kts | 287° |
| 2026-04-26 05:16 | 41.84722 | 34.16192 | 40008 ft | 463 kts | 287° |
| 2026-04-26 05:16 | 41.86629 | 34.07930 | 40005 ft | 463 kts | 287° |
| 2026-04-26 05:17 | 41.88529 | 33.99668 | 40007 ft | 464 kts | 287° |
| 2026-04-26 05:17 | 41.90417 | 33.91424 | 40000 ft | 464 kts | 287° |
| 2026-04-26 05:18 | 41.92308 | 33.83137 | 40001 ft | 464 kts | 287° |
| 2026-04-26 05:18 | 41.94197 | 33.74831 | 40001 ft | 464 kts | 287° |
| 2026-04-26 05:19 | 41.96036 | 33.66571 | 39999 ft | 464 kts | 285° |
| 2026-04-26 05:19 | 41.97651 | 33.58159 | 39993 ft | 464 kts | 284° |
| 2026-04-26 05:20 | 41.99209 | 33.49722 | 39996 ft | 465 kts | 284° |
| 2026-04-26 05:20 | 42.00796 | 33.41287 | 39997 ft | 465 kts | 284° |
| 2026-04-26 05:21 | 42.02392 | 33.32903 | 39996 ft | 465 kts | 284° |
| 2026-04-26 05:21 | 42.03996 | 33.24469 | 39996 ft | 465 kts | 284° |
| 2026-04-26 05:22 | 42.05322 | 33.17460 | 39992 ft | 465 kts | 284° |
| 2026-04-26 05:22 | 42.06914 | 33.09011 | 39993 ft | 465 kts | 284° |
| 2026-04-26 05:23 | 42.08561 | 33.00579 | 39994 ft | 465 kts | 286° |
| 2026-04-26 05:23 | 42.10297 | 32.92230 | 39993 ft | 465 kts | 286° |
| 2026-04-26 05:24 | 42.12037 | 32.83825 | 39993 ft | 465 kts | 286° |
| 2026-04-26 05:24 | 42.13753 | 32.75408 | 39993 ft | 465 kts | 285° |
| 2026-04-26 05:25 | 42.15444 | 32.67038 | 39993 ft | 465 kts | 285° |
| 2026-04-26 05:25 | 42.17140 | 32.58609 | 39995 ft | 465 kts | 285° |
| 2026-04-26 05:26 | 42.18832 | 32.50158 | 39997 ft | 465 kts | 285° |
| 2026-04-26 05:26 | 42.20497 | 32.41781 | 39997 ft | 465 kts | 285° |
| 2026-04-26 05:27 | 42.22169 | 32.33338 | 39996 ft | 465 kts | 285° |
| 2026-04-26 05:27 | 42.23836 | 32.24894 | 39995 ft | 465 kts | 285° |
| 2026-04-26 05:28 | 42.25501 | 32.16443 | 39996 ft | 465 kts | 285° |
| 2026-04-26 05:28 | 42.27143 | 32.08044 | 39998 ft | 465 kts | 285° |
| 2026-04-26 05:29 | 42.28791 | 31.99592 | 39999 ft | 465 kts | 285° |
| 2026-04-26 05:29 | 42.30432 | 31.91148 | 39996 ft | 465 kts | 285° |
| 2026-04-26 05:30 | 42.32067 | 31.82708 | 39994 ft | 465 kts | 285° |
| 2026-04-26 05:30 | 42.33699 | 31.74254 | 39957 ft | 464 kts | 285° |
| 2026-04-26 05:31 | 42.35323 | 31.65810 | 39996 ft | 463 kts | 284° |
| 2026-04-26 05:31 | 42.36923 | 31.57445 | 39994 ft | 462 kts | 284° |
| 2026-04-26 05:32 | 42.38530 | 31.49005 | 39996 ft | 462 kts | 284° |
| 2026-04-26 05:32 | 42.40129 | 31.40574 | 39994 ft | 462 kts | 284° |
| 2026-04-26 05:33 | 42.41709 | 31.32204 | 39998 ft | 461 kts | 284° |
| 2026-04-26 05:33 | 42.43292 | 31.23785 | 39999 ft | 461 kts | 284° |
| 2026-04-26 05:34 | 42.44869 | 31.15358 | 39997 ft | 461 kts | 284° |
| 2026-04-26 05:34 | 42.46445 | 31.06920 | 39998 ft | 461 kts | 284° |
| 2026-04-26 05:35 | 42.47994 | 30.98558 | 39995 ft | 460 kts | 284° |
| 2026-04-26 05:35 | 42.49542 | 30.90141 | 39997 ft | 460 kts | 284° |
| 2026-04-26 05:36 | 42.51088 | 30.81711 | 39997 ft | 460 kts | 284° |
| 2026-04-26 05:36 | 42.52629 | 30.73280 | 39995 ft | 460 kts | 284° |
| 2026-04-26 05:37 | 42.54149 | 30.64922 | 39994 ft | 459 kts | 284° |
| 2026-04-26 05:37 | 42.55673 | 30.56510 | 39996 ft | 459 kts | 284° |
| 2026-04-26 05:38 | 42.57193 | 30.48079 | 39995 ft | 459 kts | 284° |
| 2026-04-26 05:38 | 42.58706 | 30.39645 | 39993 ft | 459 kts | 284° |
| 2026-04-26 05:39 | 42.60403 | 30.31298 | 39994 ft | 458 kts | 291° |
| 2026-04-26 05:39 | 42.63452 | 30.23804 | 39991 ft | 458 kts | 307° |
| 2026-04-26 05:40 | 42.67818 | 30.17485 | 39991 ft | 459 kts | 315° |
| 2026-04-26 05:40 | 42.72442 | 30.11472 | 39986 ft | 459 kts | 315° |
| 2026-04-26 05:41 | 42.77049 | 30.05523 | 39990 ft | 459 kts | 315° |
| 2026-04-26 05:41 | 42.81662 | 29.99502 | 39987 ft | 458 kts | 315° |
| 2026-04-26 05:42 | 42.86292 | 29.93602 | 39984 ft | 458 kts | 316° |
| 2026-04-26 05:42 | 42.90996 | 29.87730 | 40001 ft | 458 kts | 317° |
| 2026-04-26 05:43 | 42.95699 | 29.81826 | 39982 ft | 459 kts | 316° |
| 2026-04-26 05:43 | 43.00386 | 29.75899 | 39976 ft | 458 kts | 316° |
| 2026-04-26 05:44 | 43.05052 | 29.69974 | 39982 ft | 457 kts | 316° |
| 2026-04-26 05:44 | 43.09708 | 29.64045 | 39977 ft | 457 kts | 316° |
| 2026-04-26 05:45 | 43.14333 | 29.58145 | 39978 ft | 456 kts | 316° |
| 2026-04-26 05:45 | 43.18983 | 29.52202 | 39977 ft | 456 kts | 316° |
| 2026-04-26 05:46 | 43.23621 | 29.46261 | 39974 ft | 456 kts | 316° |
| 2026-04-26 05:46 | 43.28260 | 29.40307 | 39975 ft | 456 kts | 315° |
| 2026-04-26 05:47 | 43.32855 | 29.34396 | 39971 ft | 455 kts | 315° |
| 2026-04-26 05:47 | 43.37478 | 29.28435 | 39976 ft | 455 kts | 315° |
| 2026-04-26 05:48 | 43.42093 | 29.22471 | 39967 ft | 455 kts | 315° |
| 2026-04-26 05:48 | 43.46703 | 29.16501 | 39968 ft | 454 kts | 315° |
| 2026-04-26 05:49 | 43.53568 | 29.07587 | 39965 ft | 453 kts | 315° |
| 2026-04-26 05:50 | 43.58153 | 29.01617 | 39958 ft | 453 kts | 315° |
| 2026-04-26 05:50 | 43.62732 | 28.95641 | 39956 ft | 452 kts | 315° |
| 2026-04-26 05:51 | 43.67280 | 28.89694 | 39957 ft | 452 kts | 315° |
| 2026-04-26 05:51 | 43.71845 | 28.83710 | 39955 ft | 452 kts | 315° |
| 2026-04-26 05:52 | 43.76400 | 28.77727 | 39954 ft | 451 kts | 315° |
| 2026-04-26 05:52 | 43.80952 | 28.71734 | 39945 ft | 451 kts | 315° |
| 2026-04-26 05:53 | 43.85471 | 28.65771 | 39929 ft | 451 kts | 315° |
| 2026-04-26 05:53 | 43.90011 | 28.59768 | 39935 ft | 450 kts | 314° |
| 2026-04-26 05:54 | 43.94544 | 28.53761 | 39923 ft | 450 kts | 314° |
| 2026-04-26 05:54 | 43.99045 | 28.47782 | 39916 ft | 450 kts | 314° |
| 2026-04-26 05:55 | 44.03566 | 28.41764 | 39915 ft | 450 kts | 314° |
| 2026-04-26 05:55 | 44.08081 | 28.35739 | 39917 ft | 450 kts | 314° |
| 2026-04-26 05:56 | 44.12596 | 28.29703 | 39912 ft | 449 kts | 314° |
| 2026-04-26 05:56 | 44.17101 | 28.23666 | 39915 ft | 449 kts | 314° |
| 2026-04-26 05:57 | 44.21572 | 28.17662 | 39914 ft | 449 kts | 314° |
| 2026-04-26 05:57 | 44.26066 | 28.11614 | 39912 ft | 448 kts | 314° |
| 2026-04-26 05:58 | 44.30553 | 28.05561 | 39912 ft | 448 kts | 314° |
| 2026-04-26 05:58 | 44.35031 | 27.99505 | 39914 ft | 447 kts | 314° |
| 2026-04-26 05:59 | 44.39501 | 27.93447 | 39913 ft | 447 kts | 314° |
| 2026-04-26 05:59 | 44.43939 | 27.87420 | 39913 ft | 447 kts | 314° |
| 2026-04-26 06:00 | 44.48402 | 27.81345 | 39912 ft | 447 kts | 314° |
| 2026-04-26 06:00 | 44.52863 | 27.75259 | 39910 ft | 446 kts | 314° |
| 2026-04-26 06:01 | 44.57286 | 27.69211 | 39906 ft | 446 kts | 313° |
| 2026-04-26 06:01 | 44.61737 | 27.63111 | 39905 ft | 446 kts | 313° |
| 2026-04-26 06:02 | 44.66149 | 27.57051 | 39907 ft | 446 kts | 313° |
| 2026-04-26 06:02 | 44.70574 | 27.50959 | 39903 ft | 445 kts | 313° |
| 2026-04-26 06:03 | 44.74994 | 27.44861 | 39905 ft | 445 kts | 313° |
| 2026-04-26 06:03 | 44.79412 | 27.38752 | 39910 ft | 445 kts | 313° |
| 2026-04-26 06:04 | 44.83829 | 27.32628 | 39894 ft | 445 kts | 313° |
| 2026-04-26 06:04 | 44.88248 | 27.26489 | 39899 ft | 446 kts | 313° |
| 2026-04-26 06:05 | 44.92635 | 27.20381 | 39899 ft | 446 kts | 313° |
| 2026-04-26 06:05 | 44.97049 | 27.14221 | 39892 ft | 446 kts | 313° |
| 2026-04-26 06:06 | 45.01471 | 27.08036 | 39895 ft | 446 kts | 313° |
| 2026-04-26 06:06 | 45.05880 | 27.01854 | 39890 ft | 446 kts | 313° |
| 2026-04-26 06:07 | 45.10266 | 26.95691 | 39890 ft | 447 kts | 313° |
| 2026-04-26 06:07 | 45.14674 | 26.89483 | 39889 ft | 447 kts | 313° |
| 2026-04-26 06:08 | 45.19083 | 26.83260 | 39887 ft | 447 kts | 313° |
| 2026-04-26 06:08 | 45.23468 | 26.77056 | 39886 ft | 447 kts | 313° |
| 2026-04-26 06:09 | 45.27869 | 26.70814 | 39883 ft | 448 kts | 313° |
| 2026-04-26 06:09 | 45.32290 | 26.64529 | 39879 ft | 448 kts | 313° |
| 2026-04-26 06:10 | 45.36696 | 26.58252 | 39885 ft | 448 kts | 313° |
| 2026-04-26 06:10 | 45.41065 | 26.52011 | 39884 ft | 447 kts | 313° |
| 2026-04-26 06:11 | 45.45455 | 26.45728 | 39887 ft | 447 kts | 313° |
| 2026-04-26 06:11 | 45.49829 | 26.39452 | 39888 ft | 446 kts | 313° |
| 2026-04-26 06:12 | 45.54204 | 26.33160 | 39896 ft | 446 kts | 312° |
| 2026-04-26 06:12 | 45.58549 | 26.26896 | 39900 ft | 446 kts | 312° |
| 2026-04-26 06:13 | 45.62179 | 26.21651 | 39895 ft | 445 kts | 312° |
| 2026-04-26 06:13 | 45.66532 | 26.15350 | 39913 ft | 445 kts | 312° |
| 2026-04-26 06:14 | 45.70874 | 26.09048 | 39910 ft | 444 kts | 312° |
| 2026-04-26 06:14 | 45.75202 | 26.02753 | 39920 ft | 443 kts | 312° |
| 2026-04-26 06:15 | 45.79522 | 25.96454 | 39926 ft | 442 kts | 312° |
| 2026-04-26 06:15 | 45.83825 | 25.90163 | 39927 ft | 441 kts | 312° |
| 2026-04-26 06:16 | 45.88105 | 25.83894 | 39927 ft | 441 kts | 312° |
| 2026-04-26 06:16 | 45.92395 | 25.77595 | 39925 ft | 440 kts | 312° |
| 2026-04-26 06:17 | 45.96655 | 25.71325 | 39928 ft | 440 kts | 312° |
| 2026-04-26 06:17 | 46.00933 | 25.65014 | 39926 ft | 440 kts | 312° |
| 2026-04-26 06:18 | 46.05209 | 25.58689 | 39923 ft | 440 kts | 312° |
| 2026-04-26 06:18 | 46.09453 | 25.52400 | 39923 ft | 439 kts | 312° |
| 2026-04-26 06:19 | 46.13712 | 25.46070 | 39922 ft | 439 kts | 312° |
| 2026-04-26 06:19 | 46.17974 | 25.39723 | 39919 ft | 440 kts | 312° |
| 2026-04-26 06:20 | 46.22227 | 25.33374 | 39921 ft | 440 kts | 312° |
| 2026-04-26 06:20 | 46.26464 | 25.27032 | 39919 ft | 441 kts | 312° |
| 2026-04-26 06:21 | 46.30718 | 25.20652 | 39920 ft | 441 kts | 312° |
| 2026-04-26 06:21 | 46.34978 | 25.14249 | 39915 ft | 441 kts | 312° |
| 2026-04-26 06:22 | 46.39214 | 25.07865 | 39918 ft | 442 kts | 312° |
| 2026-04-26 06:22 | 46.43481 | 25.01419 | 39914 ft | 442 kts | 312° |
| 2026-04-26 06:23 | 46.47740 | 24.94970 | 39913 ft | 443 kts | 312° |
| 2026-04-26 06:23 | 46.52004 | 24.88495 | 39916 ft | 443 kts | 312° |
| 2026-04-26 06:24 | 46.56236 | 24.82055 | 39916 ft | 443 kts | 312° |
| 2026-04-26 06:24 | 46.60493 | 24.75562 | 39915 ft | 443 kts | 312° |
| 2026-04-26 06:25 | 46.64746 | 24.69059 | 39916 ft | 442 kts | 312° |
| 2026-04-26 06:25 | 46.68955 | 24.62607 | 39913 ft | 442 kts | 312° |
| 2026-04-26 06:26 | 46.73187 | 24.56104 | 39914 ft | 441 kts | 312° |
| 2026-04-26 06:26 | 46.77405 | 24.49607 | 39914 ft | 440 kts | 312° |
| 2026-04-26 06:27 | 46.81605 | 24.43122 | 39902 ft | 439 kts | 312° |
| 2026-04-26 06:27 | 46.85793 | 24.36640 | 39920 ft | 437 kts | 312° |
| 2026-04-26 06:28 | 46.89937 | 24.30211 | 39906 ft | 436 kts | 312° |
| 2026-04-26 06:28 | 46.94094 | 24.23745 | 39902 ft | 436 kts | 311° |
| 2026-04-26 06:29 | 46.98249 | 24.17267 | 39901 ft | 436 kts | 311° |
| 2026-04-26 06:29 | 47.02408 | 24.10766 | 39901 ft | 437 kts | 311° |
| 2026-04-26 06:30 | 47.06539 | 24.04294 | 39903 ft | 438 kts | 311° |
| 2026-04-26 06:30 | 47.10699 | 23.97762 | 39904 ft | 439 kts | 311° |
| 2026-04-26 06:31 | 47.14870 | 23.91194 | 39902 ft | 439 kts | 311° |
| 2026-04-26 06:31 | 47.19046 | 23.84601 | 39900 ft | 440 kts | 311° |
| 2026-04-26 06:32 | 47.23201 | 23.78028 | 39895 ft | 441 kts | 310° |
| 2026-04-26 06:32 | 47.27378 | 23.71404 | 39896 ft | 441 kts | 310° |
| 2026-04-26 06:33 | 47.31549 | 23.64770 | 39898 ft | 441 kts | 310° |
| 2026-04-26 06:33 | 47.35718 | 23.58126 | 39898 ft | 441 kts | 310° |
| 2026-04-26 06:34 | 47.39850 | 23.51522 | 39906 ft | 440 kts | 310° |
| 2026-04-26 06:34 | 47.44004 | 23.44867 | 39911 ft | 440 kts | 310° |
| 2026-04-26 06:35 | 47.48150 | 23.38208 | 39911 ft | 439 kts | 310° |
| 2026-04-26 06:35 | 47.52254 | 23.31600 | 39914 ft | 438 kts | 310° |
| 2026-04-26 06:36 | 47.56373 | 23.24952 | 39913 ft | 437 kts | 310° |
| 2026-04-26 06:36 | 47.60473 | 23.18316 | 39912 ft | 436 kts | 310° |
| 2026-04-26 06:37 | 47.64542 | 23.11715 | 39913 ft | 435 kts | 310° |
| 2026-04-26 06:37 | 47.68619 | 23.05084 | 39913 ft | 434 kts | 310° |
| 2026-04-26 06:38 | 47.72673 | 22.98475 | 39913 ft | 432 kts | 310° |
| 2026-04-26 06:38 | 47.76717 | 22.91865 | 39915 ft | 431 kts | 310° |
| 2026-04-26 06:39 | 47.80745 | 22.85265 | 39914 ft | 430 kts | 310° |
| 2026-04-26 06:39 | 47.84729 | 22.78721 | 39917 ft | 428 kts | 310° |
| 2026-04-26 06:40 | 47.88728 | 22.72135 | 39913 ft | 427 kts | 310° |
| 2026-04-26 06:40 | 47.92709 | 22.65564 | 39928 ft | 426 kts | 310° |
| 2026-04-26 06:41 | 47.96654 | 22.59034 | 39914 ft | 426 kts | 310° |
| 2026-04-26 06:41 | 48.00621 | 22.52453 | 39917 ft | 426 kts | 310° |
| 2026-04-26 06:42 | 48.04583 | 22.45863 | 39919 ft | 426 kts | 310° |
| 2026-04-26 06:42 | 48.08537 | 22.39271 | 39921 ft | 426 kts | 310° |
| 2026-04-26 06:43 | 48.12464 | 22.32709 | 39921 ft | 426 kts | 310° |
| 2026-04-26 06:43 | 48.16410 | 22.26097 | 39926 ft | 426 kts | 310° |
| 2026-04-26 06:44 | 48.20365 | 22.19454 | 39924 ft | 426 kts | 310° |
| 2026-04-26 06:44 | 48.24286 | 22.12852 | 39926 ft | 426 kts | 310° |
| 2026-04-26 06:45 | 48.28230 | 22.06194 | 39928 ft | 426 kts | 310° |
| 2026-04-26 06:45 | 48.32542 | 22.00050 | 39929 ft | 429 kts | 321° |
| 2026-04-26 06:46 | 48.37833 | 21.95752 | 39931 ft | 438 kts | 336° |
| 2026-04-26 06:46 | 48.43830 | 21.93963 | 39936 ft | 449 kts | 351° |
| 2026-04-26 06:47 | 48.50141 | 21.94228 | 39933 ft | 456 kts | 358° |
| 2026-04-26 06:47 | 48.56481 | 21.95211 | 39942 ft | 457 kts | 359° |
| 2026-04-26 06:48 | 48.62765 | 21.96201 | 39945 ft | 456 kts | 359° |
| 2026-04-26 06:48 | 48.69077 | 21.97093 | 39947 ft | 454 kts | 358° |
| 2026-04-26 06:49 | 48.75380 | 21.97934 | 39949 ft | 453 kts | 358° |
| 2026-04-26 06:49 | 48.81678 | 21.98768 | 39955 ft | 454 kts | 358° |
| 2026-04-26 06:50 | 48.87974 | 21.99609 | 39958 ft | 455 kts | 358° |
| 2026-04-26 06:50 | 48.94246 | 22.00450 | 39965 ft | 456 kts | 358° |
| 2026-04-26 06:51 | 49.00576 | 22.01303 | 39966 ft | 456 kts | 358° |
| 2026-04-26 06:51 | 49.10103 | 22.02590 | 39972 ft | 458 kts | 358° |
| 2026-04-26 06:52 | 49.16423 | 22.03449 | 39974 ft | 458 kts | 358° |
| 2026-04-26 06:52 | 49.22800 | 22.04317 | 39978 ft | 459 kts | 357° |
| 2026-04-26 06:53 | 49.29132 | 22.05179 | 39978 ft | 459 kts | 357° |
| 2026-04-26 06:53 | 49.35499 | 22.06049 | 39983 ft | 459 kts | 357° |
| 2026-04-26 06:54 | 49.41869 | 22.06923 | 39985 ft | 458 kts | 357° |
| 2026-04-26 06:54 | 49.48215 | 22.07796 | 39986 ft | 457 kts | 357° |
| 2026-04-26 06:55 | 49.54509 | 22.08662 | 39978 ft | 457 kts | 358° |
| 2026-04-26 06:55 | 49.60841 | 22.09537 | 39997 ft | 456 kts | 358° |
| 2026-04-26 06:56 | 49.67166 | 22.10414 | 39996 ft | 456 kts | 358° |
| 2026-04-26 06:56 | 49.73486 | 22.11291 | 39995 ft | 455 kts | 358° |
| 2026-04-26 06:57 | 49.79753 | 22.12164 | 40001 ft | 454 kts | 358° |
| 2026-04-26 06:57 | 49.86054 | 22.13043 | 40009 ft | 454 kts | 358° |
| 2026-04-26 06:58 | 49.92348 | 22.13922 | 40012 ft | 454 kts | 358° |
| 2026-04-26 06:58 | 49.98601 | 22.14800 | 40025 ft | 453 kts | 358° |
| 2026-04-26 06:59 | 50.04884 | 22.15685 | 40023 ft | 453 kts | 358° |
| 2026-04-26 06:59 | 50.11173 | 22.16571 | 40027 ft | 453 kts | 358° |
| 2026-04-26 07:00 | 50.17462 | 22.17460 | 40020 ft | 453 kts | 358° |
| 2026-04-26 07:00 | 50.23757 | 22.18353 | 40018 ft | 454 kts | 358° |
| 2026-04-26 07:01 | 50.30012 | 22.19242 | 40015 ft | 454 kts | 358° |
| 2026-04-26 07:01 | 50.36300 | 22.20139 | 40012 ft | 454 kts | 358° |
| 2026-04-26 07:02 | 50.42593 | 22.21038 | 40009 ft | 454 kts | 358° |
| 2026-04-26 07:02 | 50.48899 | 22.21943 | 40011 ft | 454 kts | 358° |
| 2026-04-26 07:03 | 50.54125 | 22.22694 | 40014 ft | 454 kts | 358° |
| 2026-04-26 07:03 | 50.61443 | 22.23747 | 40015 ft | 454 kts | 358° |
| 2026-04-26 07:04 | 50.66691 | 22.24504 | 40012 ft | 455 kts | 358° |
| 2026-04-26 07:04 | 50.73009 | 22.25419 | 40014 ft | 455 kts | 359° |
| 2026-04-26 07:05 | 50.79329 | 22.26337 | 40011 ft | 456 kts | 359° |
| 2026-04-26 07:05 | 50.85617 | 22.27252 | 40013 ft | 456 kts | 359° |
| 2026-04-26 07:06 | 50.91948 | 22.28176 | 40008 ft | 457 kts | 359° |
| 2026-04-26 07:06 | 50.98295 | 22.29105 | 40010 ft | 458 kts | 359° |
| 2026-04-26 07:07 | 51.04656 | 22.30039 | 39999 ft | 458 kts | 359° |
| 2026-04-26 07:07 | 51.10974 | 22.30969 | 40003 ft | 459 kts | 359° |
| 2026-04-26 07:08 | 51.17333 | 22.31908 | 40001 ft | 459 kts | 359° |
| 2026-04-26 07:08 | 51.23702 | 22.32851 | 39996 ft | 459 kts | 359° |
| 2026-04-26 07:09 | 51.30079 | 22.33797 | 39993 ft | 460 kts | 359° |
| 2026-04-26 07:09 | 51.36457 | 22.34746 | 39989 ft | 460 kts | 359° |
| 2026-04-26 07:11 | 51.52355 | 22.37125 | 39979 ft | 460 kts | 360° |
| 2026-04-26 07:11 | 51.58724 | 22.38083 | 39974 ft | 459 kts | 360° |
| 2026-04-26 07:12 | 51.65094 | 22.39043 | 39973 ft | 459 kts | 360° |
| 2026-04-26 07:12 | 51.71426 | 22.39999 | 39971 ft | 459 kts | 360° |
| 2026-04-26 07:13 | 51.77798 | 22.40964 | 39965 ft | 459 kts | 360° |
| 2026-04-26 07:13 | 51.84168 | 22.41932 | 39966 ft | 459 kts | 360° |
| 2026-04-26 07:14 | 51.90499 | 22.42898 | 39963 ft | 459 kts | 0° |
| 2026-04-26 07:14 | 51.96860 | 22.43870 | 39958 ft | 459 kts | 0° |
| 2026-04-26 07:15 | 52.03230 | 22.44847 | 39945 ft | 459 kts | 0° |
| 2026-04-26 07:15 | 52.09608 | 22.45828 | 39948 ft | 460 kts | 0° |
| 2026-04-26 07:16 | 52.15983 | 22.46810 | 39951 ft | 460 kts | 0° |
| 2026-04-26 07:16 | 52.22357 | 22.47796 | 39947 ft | 460 kts | 0° |
| 2026-04-26 07:17 | 52.28703 | 22.48780 | 40036 ft | 461 kts | 0° |
| 2026-04-26 07:17 | 52.31905 | 22.49276 | 40196 ft | 462 kts | 0° |
| 2026-04-26 07:17 | 52.35104 | 22.49774 | 40349 ft | 462 kts | 0° |
| 2026-04-26 07:17 | 52.38304 | 22.50273 | 40499 ft | 462 kts | 0° |
| 2026-04-26 07:18 | 52.41514 | 22.50774 | 40622 ft | 463 kts | 0° |
| 2026-04-26 07:18 | 52.44726 | 22.51276 | 40762 ft | 463 kts | 1° |
| 2026-04-26 07:18 | 52.47911 | 22.51774 | 40877 ft | 464 kts | 1° |
| 2026-04-26 07:19 | 52.54349 | 22.52785 | 40938 ft | 465 kts | 1° |
| 2026-04-26 07:19 | 52.60797 | 22.53800 | 40935 ft | 465 kts | 1° |
| 2026-04-26 07:20 | 52.67232 | 22.55244 | 40932 ft | 468 kts | 6° |
| 2026-04-26 07:20 | 52.73644 | 22.57326 | 40932 ft | 469 kts | 6° |
| 2026-04-26 07:21 | 52.80012 | 22.59381 | 40925 ft | 469 kts | 6° |
| 2026-04-26 07:21 | 52.86442 | 22.61346 | 40923 ft | 469 kts | 5° |
| 2026-04-26 07:22 | 52.92865 | 22.63263 | 40920 ft | 469 kts | 5° |
| 2026-04-26 07:22 | 52.99253 | 22.65169 | 40923 ft | 469 kts | 5° |
| 2026-04-26 07:23 | 53.05671 | 22.67095 | 40917 ft | 469 kts | 6° |
| 2026-04-26 07:23 | 53.12099 | 22.69033 | 40917 ft | 469 kts | 6° |
| 2026-04-26 07:24 | 53.18549 | 22.70984 | 40915 ft | 470 kts | 6° |
| 2026-04-26 07:24 | 53.24982 | 22.72936 | 40910 ft | 470 kts | 6° |
| 2026-04-26 07:25 | 53.31417 | 22.74895 | 40907 ft | 470 kts | 6° |
| 2026-04-26 07:25 | 53.37825 | 22.76851 | 40904 ft | 471 kts | 6° |
| 2026-04-26 07:26 | 53.44298 | 22.78833 | 40904 ft | 471 kts | 6° |
| 2026-04-26 07:26 | 53.50708 | 22.80802 | 40901 ft | 471 kts | 6° |
| 2026-04-26 07:27 | 53.57185 | 22.82798 | 40898 ft | 472 kts | 6° |
| 2026-04-26 07:27 | 53.63644 | 22.84794 | 40895 ft | 472 kts | 6° |
| 2026-04-26 07:28 | 53.70109 | 22.86798 | 40892 ft | 472 kts | 6° |
| 2026-04-26 07:28 | 53.76577 | 22.88810 | 40893 ft | 472 kts | 6° |
| 2026-04-26 07:29 | 53.83056 | 22.90831 | 40881 ft | 473 kts | 6° |
| 2026-04-26 07:29 | 53.89489 | 22.92844 | 40881 ft | 473 kts | 6° |
| 2026-04-26 07:30 | 53.95964 | 22.94878 | 40880 ft | 473 kts | 7° |
| 2026-04-26 07:30 | 54.02444 | 22.96918 | 40875 ft | 473 kts | 7° |
| 2026-04-26 07:31 | 54.08932 | 22.98968 | 40868 ft | 473 kts | 7° |
| 2026-04-26 07:31 | 54.15414 | 23.01022 | 40868 ft | 473 kts | 7° |
| 2026-04-26 07:32 | 54.21858 | 23.03071 | 40864 ft | 473 kts | 7° |
| 2026-04-26 07:32 | 54.28340 | 23.05139 | 40858 ft | 473 kts | 7° |
| 2026-04-26 07:33 | 54.34828 | 23.07189 | 40858 ft | 473 kts | 6° |
| 2026-04-26 07:33 | 54.41317 | 23.09139 | 40858 ft | 473 kts | 6° |
| 2026-04-26 07:34 | 54.47774 | 23.11074 | 40855 ft | 473 kts | 6° |
| 2026-04-26 07:34 | 54.54265 | 23.13041 | 40856 ft | 473 kts | 7° |
| 2026-04-26 07:35 | 54.60760 | 23.15025 | 40843 ft | 473 kts | 7° |
| 2026-04-26 07:35 | 54.67251 | 23.17016 | 40841 ft | 473 kts | 7° |
| 2026-04-26 07:36 | 54.73736 | 23.19012 | 40845 ft | 473 kts | 7° |
| 2026-04-26 07:36 | 54.80191 | 23.21003 | 40829 ft | 473 kts | 7° |
| 2026-04-26 07:37 | 54.86690 | 23.23015 | 40847 ft | 473 kts | 7° |
| 2026-04-26 07:37 | 54.93179 | 23.25030 | 40833 ft | 473 kts | 7° |
| 2026-04-26 07:38 | 54.99671 | 23.27053 | 40828 ft | 473 kts | 7° |
| 2026-04-26 07:38 | 55.05298 | 23.28929 | 40824 ft | 474 kts | 8° |
| 2026-04-26 07:39 | 55.11809 | 23.31232 | 40826 ft | 474 kts | 8° |
| 2026-04-26 07:39 | 55.18295 | 23.33511 | 40822 ft | 474 kts | 8° |
| 2026-04-26 07:40 | 55.24733 | 23.35774 | 40814 ft | 475 kts | 8° |
| 2026-04-26 07:40 | 55.31210 | 23.38055 | 40816 ft | 475 kts | 8° |
| 2026-04-26 07:41 | 55.37700 | 23.40347 | 40811 ft | 475 kts | 8° |
| 2026-04-26 07:41 | 55.44195 | 23.42649 | 40814 ft | 475 kts | 8° |
| 2026-04-26 07:42 | 55.50643 | 23.44941 | 40812 ft | 476 kts | 8° |
| 2026-04-26 07:42 | 55.57143 | 23.47260 | 40810 ft | 476 kts | 8° |
| 2026-04-26 07:43 | 55.63644 | 23.49587 | 40812 ft | 476 kts | 8° |
| 2026-04-26 07:43 | 55.70155 | 23.51926 | 40818 ft | 477 kts | 8° |
| 2026-04-26 07:44 | 55.76654 | 23.54268 | 40825 ft | 477 kts | 8° |
| 2026-04-26 07:44 | 55.83157 | 23.56620 | 40828 ft | 477 kts | 8° |
| 2026-04-26 07:45 | 55.89621 | 23.58966 | 40827 ft | 477 kts | 8° |
| 2026-04-26 07:45 | 55.96129 | 23.61335 | 40822 ft | 477 kts | 8° |
| 2026-04-26 07:46 | 56.02643 | 23.63715 | 40817 ft | 477 kts | 8° |
| 2026-04-26 07:46 | 56.09161 | 23.66105 | 40805 ft | 478 kts | 9° |
| 2026-04-26 07:47 | 56.15645 | 23.68490 | 40797 ft | 478 kts | 9° |
| 2026-04-26 07:47 | 56.22168 | 23.70898 | 40786 ft | 478 kts | 9° |
| 2026-04-26 07:48 | 56.28685 | 23.73312 | 40785 ft | 478 kts | 9° |
| 2026-04-26 07:48 | 56.35215 | 23.75740 | 40780 ft | 478 kts | 9° |
| 2026-04-26 07:49 | 56.41698 | 23.78158 | 40782 ft | 478 kts | 9° |
| 2026-04-26 07:49 | 56.48220 | 23.80599 | 40775 ft | 478 kts | 9° |
| 2026-04-26 07:50 | 56.55168 | 23.83210 | 40775 ft | 478 kts | 9° |
| 2026-04-26 07:50 | 56.61704 | 23.85674 | 40774 ft | 478 kts | 9° |
| 2026-04-26 07:51 | 56.68186 | 23.88127 | 40776 ft | 479 kts | 9° |
| 2026-04-26 07:51 | 56.74723 | 23.90610 | 40774 ft | 479 kts | 9° |
| 2026-04-26 07:52 | 56.81245 | 23.93095 | 40771 ft | 479 kts | 9° |
| 2026-04-26 07:52 | 56.87736 | 23.95577 | 40777 ft | 478 kts | 9° |
| 2026-04-26 07:53 | 56.93200 | 23.97674 | 40774 ft | 478 kts | 9° |
| 2026-04-26 07:53 | 56.99676 | 24.00166 | 40775 ft | 478 kts | 9° |
| 2026-04-26 07:54 | 57.06203 | 24.02688 | 40770 ft | 478 kts | 9° |
| 2026-04-26 07:54 | 57.12724 | 24.05216 | 40771 ft | 478 kts | 9° |
| 2026-04-26 07:55 | 57.19194 | 24.07734 | 40768 ft | 478 kts | 9° |
| 2026-04-26 07:55 | 57.25708 | 24.10279 | 40761 ft | 477 kts | 9° |
| 2026-04-26 07:56 | 57.32216 | 24.12829 | 40757 ft | 477 kts | 9° |
| 2026-04-26 07:56 | 57.38676 | 24.15371 | 40756 ft | 477 kts | 9° |
| 2026-04-26 07:57 | 57.45178 | 24.17937 | 40753 ft | 477 kts | 9° |
| 2026-04-26 07:57 | 57.51688 | 24.20518 | 40750 ft | 477 kts | 9° |
| 2026-04-26 07:58 | 57.58135 | 24.23081 | 40748 ft | 477 kts | 9° |
| 2026-04-26 07:58 | 57.64629 | 24.25671 | 40745 ft | 477 kts | 9° |
| 2026-04-26 07:59 | 57.71131 | 24.28275 | 40737 ft | 477 kts | 10° |
| 2026-04-26 07:59 | 57.77638 | 24.30892 | 40741 ft | 477 kts | 10° |
| 2026-04-26 08:00 | 57.84102 | 24.33500 | 40741 ft | 478 kts | 10° |
| 2026-04-26 08:00 | 57.90601 | 24.36132 | 40730 ft | 478 kts | 10° |
| 2026-04-26 08:01 | 57.97111 | 24.38779 | 40733 ft | 478 kts | 10° |
| 2026-04-26 08:01 | 58.03619 | 24.41433 | 40729 ft | 478 kts | 10° |
| 2026-04-26 08:02 | 58.10125 | 24.44097 | 40720 ft | 478 kts | 10° |
| 2026-04-26 08:02 | 58.16590 | 24.46756 | 40720 ft | 478 kts | 10° |
| 2026-04-26 08:03 | 58.23110 | 24.49446 | 40720 ft | 478 kts | 10° |
| 2026-04-26 08:03 | 58.29630 | 24.52146 | 40721 ft | 478 kts | 10° |
| 2026-04-26 08:04 | 58.36137 | 24.54851 | 40716 ft | 479 kts | 10° |
| 2026-04-26 08:04 | 58.42614 | 24.57551 | 40716 ft | 479 kts | 10° |
| 2026-04-26 08:05 | 58.49122 | 24.60279 | 40717 ft | 479 kts | 10° |
| 2026-04-26 08:05 | 58.55640 | 24.63022 | 40717 ft | 479 kts | 10° |
| 2026-04-26 08:06 | 58.62148 | 24.65769 | 40551 ft | 479 kts | 10° |
| 2026-04-26 08:06 | 58.65353 | 24.67126 | 40036 ft | 478 kts | 10° |
| 2026-04-26 08:06 | 58.68601 | 24.68504 | 39366 ft | 480 kts | 10° |
| 2026-04-26 08:07 | 58.71909 | 24.69911 | 38709 ft | 481 kts | 10° |
| 2026-04-26 08:07 | 58.75152 | 24.71290 | 37997 ft | 483 kts | 10° |
| 2026-04-26 08:07 | 58.78426 | 24.72685 | 37222 ft | 483 kts | 10° |
| 2026-04-26 08:07 | 58.81723 | 24.74094 | 36474 ft | 483 kts | 10° |
| 2026-04-26 08:08 | 58.85001 | 24.75498 | 35757 ft | 482 kts | 10° |
| 2026-04-26 08:08 | 58.88277 | 24.76903 | 35036 ft | 482 kts | 10° |
| 2026-04-26 08:08 | 58.91553 | 24.78311 | 34322 ft | 481 kts | 11° |
| 2026-04-26 08:08 | 58.94817 | 24.79715 | 33597 ft | 480 kts | 11° |
| 2026-04-26 08:09 | 58.98094 | 24.80891 | 32708 ft | 479 kts | 7° |
| 2026-04-26 08:09 | 59.01344 | 24.81828 | 31556 ft | 465 kts | 6° |
| 2026-04-26 08:09 | 59.04537 | 24.82708 | 29872 ft | 462 kts | 6° |
| 2026-04-26 08:09 | 59.07682 | 24.83563 | 27807 ft | 460 kts | 6° |
| 2026-04-26 08:10 | 59.10839 | 24.84422 | 25983 ft | 453 kts | 7° |
| 2026-04-26 08:10 | 59.13930 | 24.85264 | 24437 ft | 443 kts | 7° |
| 2026-04-26 08:10 | 59.16937 | 24.86085 | 22920 ft | 431 kts | 7° |
| 2026-04-26 08:10 | 59.19887 | 24.86888 | 21079 ft | 423 kts | 7° |
| 2026-04-26 08:11 | 59.22770 | 24.87674 | 19424 ft | 414 kts | 8° |
| 2026-04-26 08:11 | 59.25640 | 24.88460 | 18198 ft | 417 kts | 8° |
| 2026-04-26 08:11 | 59.28480 | 24.89242 | 17714 ft | 398 kts | 8° |
| 2026-04-26 08:11 | 59.31122 | 24.89971 | 17148 ft | 373 kts | 8° |
| 2026-04-26 08:12 | 59.33664 | 24.90677 | 16544 ft | 372 kts | 8° |
| 2026-04-26 08:12 | 59.36209 | 24.91384 | 15937 ft | 368 kts | 7° |
| 2026-04-26 08:12 | 59.38739 | 24.92086 | 15326 ft | 364 kts | 7° |
| 2026-04-26 08:12 | 59.41239 | 24.92781 | 14723 ft | 360 kts | 7° |
| 2026-04-26 08:13 | 59.43705 | 24.93469 | 14113 ft | 357 kts | 7° |
| 2026-04-26 08:13 | 59.46151 | 24.94152 | 13506 ft | 353 kts | 6° |
| 2026-04-26 08:13 | 59.48571 | 24.94825 | 12846 ft | 348 kts | 6° |
| 2026-04-26 08:13 | 59.50955 | 24.95484 | 12252 ft | 343 kts | 6° |
| 2026-04-26 08:14 | 59.53298 | 24.96134 | 11654 ft | 337 kts | 6° |
| 2026-04-26 08:14 | 59.55578 | 24.96770 | 11074 ft | 332 kts | 6° |
| 2026-04-26 08:14 | 59.57847 | 24.97403 | 10616 ft | 321 kts | 6° |
| 2026-04-26 08:14 | 59.59932 | 24.97992 | 10458 ft | 285 kts | 6° |
| 2026-04-26 08:15 | 59.61787 | 24.98516 | 10301 ft | 255 kts | 6° |
| 2026-04-26 08:15 | 59.63505 | 24.98999 | 10176 ft | 243 kts | 6° |
| 2026-04-26 08:15 | 59.65147 | 24.99458 | 10036 ft | 233 kts | 6° |
| 2026-04-26 08:15 | 59.66756 | 24.99908 | 9942 ft | 239 kts | 6° |
| 2026-04-26 08:16 | 59.68370 | 25.00360 | 9813 ft | 236 kts | 6° |
| 2026-04-26 08:16 | 59.70036 | 25.00825 | 9714 ft | 244 kts | 6° |
| 2026-04-26 08:16 | 59.71701 | 25.01294 | 9584 ft | 241 kts | 6° |
| 2026-04-26 08:16 | 59.73381 | 25.01768 | 9424 ft | 243 kts | 6° |
| 2026-04-26 08:17 | 59.75040 | 25.02239 | 9259 ft | 241 kts | 6° |
| 2026-04-26 08:17 | 59.76712 | 25.02711 | 9008 ft | 243 kts | 6° |
| 2026-04-26 08:17 | 59.78384 | 25.03185 | 8705 ft | 241 kts | 6° |
| 2026-04-26 08:17 | 59.80038 | 25.03655 | 8403 ft | 240 kts | 6° |
| 2026-04-26 08:18 | 59.81663 | 25.04117 | 8109 ft | 238 kts | 6° |
| 2026-04-26 08:18 | 59.83296 | 25.04580 | 7813 ft | 236 kts | 6° |
| 2026-04-26 08:18 | 59.84922 | 25.05044 | 7522 ft | 235 kts | 6° |
| 2026-04-26 08:18 | 59.86537 | 25.05505 | 7224 ft | 233 kts | 6° |
| 2026-04-26 08:19 | 59.88138 | 25.05961 | 6934 ft | 232 kts | 6° |
| 2026-04-26 08:19 | 59.89727 | 25.06413 | 6642 ft | 230 kts | 6° |
| 2026-04-26 08:19 | 59.91303 | 25.06863 | 6350 ft | 228 kts | 6° |
| 2026-04-26 08:19 | 59.92870 | 25.07310 | 6061 ft | 226 kts | 6° |
| 2026-04-26 08:20 | 59.94421 | 25.07755 | 5775 ft | 224 kts | 6° |
| 2026-04-26 08:20 | 59.95944 | 25.08191 | 5511 ft | 223 kts | 6° |
| 2026-04-26 08:20 | 59.97479 | 25.08630 | 5229 ft | 222 kts | 6° |
| 2026-04-26 08:20 | 59.99004 | 25.09068 | 5063 ft | 221 kts | 6° |
| 2026-04-26 08:21 | 60.00503 | 25.09500 | 4909 ft | 217 kts | 6° |
| 2026-04-26 08:21 | 60.02011 | 25.09931 | 4702 ft | 220 kts | 6° |
| 2026-04-26 08:21 | 60.03522 | 25.10365 | 4429 ft | 219 kts | 6° |
| 2026-04-26 08:21 | 60.05029 | 25.10800 | 4140 ft | 218 kts | 6° |
| 2026-04-26 08:22 | 60.06506 | 25.11229 | 3963 ft | 209 kts | 6° |
| 2026-04-26 08:22 | 60.07913 | 25.11639 | 3801 ft | 199 kts | 5° |
| 2026-04-26 08:22 | 60.09249 | 25.12027 | 3665 ft | 189 kts | 5° |
| 2026-04-26 08:22 | 60.10508 | 25.12393 | 3520 ft | 181 kts | 5° |
| 2026-04-26 08:23 | 60.11731 | 25.12746 | 3381 ft | 176 kts | 5° |
| 2026-04-26 08:23 | 60.12936 | 25.13092 | 3244 ft | 171 kts | 5° |
| 2026-04-26 08:23 | 60.14131 | 25.13435 | 3131 ft | 175 kts | 5° |
| 2026-04-26 08:23 | 60.15348 | 25.13696 | 2985 ft | 175 kts | 358° |
| 2026-04-26 08:24 | 60.16537 | 25.13268 | 2792 ft | 174 kts | 340° |
| 2026-04-26 08:24 | 60.17628 | 25.12254 | 2658 ft | 168 kts | 336° |
| 2026-04-26 08:24 | 60.18620 | 25.11212 | 2621 ft | 153 kts | 335° |
| 2026-04-26 08:24 | 60.19523 | 25.10267 | 2556 ft | 145 kts | 336° |
| 2026-04-26 08:25 | 60.20405 | 25.09356 | 2429 ft | 138 kts | 336° |
| 2026-04-26 08:25 | 60.21234 | 25.08501 | 2265 ft | 131 kts | 336° |
| 2026-04-26 08:25 | 60.22030 | 25.07682 | 2108 ft | 125 kts | 336° |
| 2026-04-26 08:25 | 60.22772 | 25.06929 | 1990 ft | 113 kts | 338° |
| 2026-04-26 08:26 | 60.23455 | 25.06232 | 1833 ft | 108 kts | 338° |
| 2026-04-26 08:26 | 60.24119 | 25.05561 | 1679 ft | 106 kts | 338° |
| 2026-04-26 08:26 | 60.24782 | 25.04880 | 1526 ft | 107 kts | 338° |
| 2026-04-26 08:26 | 60.25451 | 25.04202 | 1378 ft | 108 kts | 338° |
| 2026-04-26 08:27 | 60.26118 | 25.03521 | 1223 ft | 107 kts | 337° |
| 2026-04-26 08:27 | 60.26774 | 25.02854 | 1048 ft | 107 kts | 336° |
| 2026-04-26 08:27 | 60.27451 | 25.02169 | 876 ft | 109 kts | 335° |
| 2026-04-26 08:27 | 60.28135 | 25.01475 | 730 ft | 110 kts | 334° |
| 2026-04-26 08:28 | 60.28813 | 25.00771 | 683 ft | 111 kts | 331° |
| 2026-04-26 08:28 | 60.29498 | 25.00056 | 541 ft | 111 kts | 334° |
| 2026-04-26 08:28 | 60.30194 | 24.99355 | 354 ft | 110 kts | 331° |
| 2026-04-26 08:28 | 60.30869 | 24.98663 | 197 ft | 108 kts | 333° |
| 2026-04-26 08:29 | 60.31470 | 24.98048 | 161 ft | 81 kts | 332° |
| 2026-04-26 08:29 | 60.31879 | 24.97625 | 159 ft | 53 kts | 333° |
| 2026-04-26 08:29 | 60.32167 | 24.97331 | 161 ft | 39 kts | 333° |
| 2026-04-26 08:29 | 60.32338 | 24.97155 | 166 ft | 13 kts | 331° |
| 2026-04-26 08:30 | 60.32383 | 24.97067 | 169 ft | 7 kts | 300° |
| 2026-04-26 08:30 | 60.32384 | 24.96985 | 170 ft | 6 kts | 252° |
| 2026-04-26 08:30 | 60.32343 | 24.96874 | 171 ft | 14 kts | 230° |
| 2026-04-26 08:30 | 60.32277 | 24.96724 | 173 ft | 15 kts | 227° |
| 2026-04-26 08:31 | 60.32202 | 24.96562 | 174 ft | 17 kts | 227° |
| 2026-04-26 08:31 | 60.32118 | 24.96374 | 174 ft | 19 kts | 227° |
| 2026-04-26 08:31 | 60.32021 | 24.96158 | 175 ft | 22 kts | 227° |
| 2026-04-26 08:31 | 60.31916 | 24.95927 | 176 ft | 23 kts | 226° |
| 2026-04-26 08:32 | 60.31800 | 24.95674 | 176 ft | 25 kts | 227° |
| 2026-04-26 08:32 | 60.31696 | 24.95445 | 177 ft | 20 kts | 229° |
| 2026-04-26 08:32 | 60.31597 | 24.95226 | 176 ft | 22 kts | 228° |
| 2026-04-26 08:32 | 60.31507 | 24.95027 | 175 ft | 20 kts | 227° |
| 2026-04-26 08:33 | 60.31404 | 24.95057 | 173 ft | 19 kts | 131° |
| 2026-04-26 08:33 | 60.31316 | 24.95238 | 173 ft | 15 kts | 137° |
| 2026-04-26 08:33 | 60.31233 | 24.95392 | 172 ft | 15 kts | 138° |
| 2026-04-26 08:33 | 60.31167 | 24.95521 | 173 ft | 13 kts | 123° |
| 2026-04-26 08:34 | 60.31198 | 24.95674 | 173 ft | 13 kts | 48° |
| 2026-04-26 08:34 | 60.31263 | 24.95819 | 173 ft | 15 kts | 47° |
| 2026-04-26 08:34 | 60.31333 | 24.95971 | 173 ft | 12 kts | 47° |
| 2026-04-26 08:34 | 60.31378 | 24.96062 | 173 ft | 9 kts | 33° |
| 2026-04-26 08:35 | 60.31422 | 24.96116 | 173 ft | 7 kts | 32° |
| 2026-04-26 08:35 | 60.31443 | 24.96143 | 173 ft | 0 kts | 32° |
| 2026-04-26 08:35 | 60.31451 | 24.96153 | 173 ft | 0 kts | 31° |
| 2026-04-26 08:35 | 60.31452 | 24.96154 | 173 ft | 0 kts | 31° |